Time;durP1;ratioP1;P1;durP2;ratioP2;P2;SDS_P1;SDS_P2;PMS_P1;PMS_P2;Temp;Humidity;BMP_temperature;BMP_pressure;BME280_temperature;BME280_humidity;BME280_pressure;Samples;Min_cycle;Max_cycle;Signal;HPM_P1;HPM_P2
2020/12/20 00:00:01;;;;;;;10.93;7.72;;;6.90;99.90;;;;;;5067648;28;20270;-74
2020/12/20 00:02:50;;;;;;;19.38;9.48;;;6.80;99.90;;;;;;5068881;28;20242;-73
2020/12/20 00:05:36;;;;;;;10.88;8.25;;;6.90;99.90;;;;;;5067447;28;20247;-72
2020/12/20 00:08:21;;;;;;;11.60;8.15;;;6.80;99.90;;;;;;5054175;28;20252;-73
2020/12/20 00:11:06;;;;;;;9.75;7.45;;;6.80;99.90;;;;;;5059063;28;20238;-73
2020/12/20 00:13:51;;;;;;;10.45;7.65;;;6.80;99.90;;;;;;5067903;28;20338;-73
2020/12/20 00:16:37;;;;;;;10.77;7.82;;;6.80;99.90;;;;;;5069187;28;20204;-73
2020/12/20 00:19:22;;;;;;;10.93;8.73;;;6.90;99.90;;;;;;5061226;28;20231;-73
2020/12/20 00:22:08;;;;;;;9.07;7.43;;;6.80;99.90;;;;;;5066416;28;20280;-74
2020/12/20 00:24:54;;;;;;;9.38;7.35;;;6.90;99.90;;;;;;5054860;28;20304;-73
2020/12/20 00:27:39;;;;;;;11.70;9.00;;;6.90;99.90;;;;;;5060199;28;20208;-73
2020/12/20 00:30:24;;;;;;;13.13;9.57;;;6.90;99.90;;;;;;5066076;28;20211;-73
2020/12/20 00:33:10;;;;;;;9.57;7.93;;;6.90;99.90;;;;;;5060101;28;20231;-72
2020/12/20 00:35:55;;;;;;;9.02;7.53;;;6.90;99.90;;;;;;5056705;28;20232;-73
2020/12/20 00:38:40;;;;;;;8.40;6.60;;;6.90;99.90;;;;;;5064353;28;20715;-73
2020/12/20 00:41:25;;;;;;;10.52;7.65;;;6.90;99.90;;;;;;5065303;28;20208;-73
2020/12/20 00:44:11;;;;;;;8.25;6.50;;;6.90;99.90;;;;;;5064611;28;20200;-73
2020/12/20 00:46:58;;;;;;;19.02;7.28;;;6.90;99.90;;;;;;5063944;28;20626;-73
2020/12/20 00:49:47;;;;;;;10.25;7.30;;;6.90;99.90;;;;;;5064050;28;20246;-73
2020/12/20 00:52:32;;;;;;;10.40;6.53;;;6.90;99.90;;;;;;5063246;28;20292;-73
2020/12/20 00:55:18;;;;;;;9.57;6.30;;;6.90;99.90;;;;;;5067926;28;20322;-73
2020/12/20 00:58:03;;;;;;;9.32;6.82;;;6.90;99.90;;;;;;5071235;28;20602;-73
2020/12/20 01:00:47;;;;;;;9.07;6.13;;;6.90;99.90;;;;;;5057664;28;20259;-73
2020/12/20 01:03:32;;;;;;;7.32;5.85;;;6.90;99.90;;;;;;5066684;28;20444;-73
2020/12/20 01:06:19;;;;;;;9.32;6.75;;;7.00;99.90;;;;;;5049327;28;20200;-73
2020/12/20 01:09:06;;;;;;;8.90;5.40;;;7.10;99.90;;;;;;5059923;28;20319;-73
2020/12/20 01:11:51;;;;;;;6.30;5.30;;;7.20;99.90;;;;;;5063276;28;20243;-73
2020/12/20 01:14:36;;;;;;;8.68;5.93;;;7.20;99.90;;;;;;5062475;28;20581;-72
2020/12/20 01:17:21;;;;;;;7.03;6.03;;;7.20;99.90;;;;;;5061077;28;20737;-73
2020/12/20 01:20:06;;;;;;;8.55;6.10;;;7.20;99.90;;;;;;5048713;28;20244;-73
2020/12/20 01:22:52;;;;;;;7.55;6.15;;;7.20;99.90;;;;;;5062851;28;20286;-73
2020/12/20 01:25:37;;;;;;;9.35;7.00;;;7.10;99.90;;;;;;5059618;28;20235;-73
2020/12/20 01:28:22;;;;;;;11.13;8.15;;;7.20;99.90;;;;;;5060970;28;20252;-73
2020/12/20 01:31:09;;;;;;;11.13;9.02;;;7.20;99.90;;;;;;5060467;28;20200;-73
2020/12/20 01:33:54;;;;;;;13.30;9.95;;;7.20;99.90;;;;;;5064159;28;20247;-73
2020/12/20 01:36:40;;;;;;;10.63;9.52;;;7.20;99.90;;;;;;5065103;28;20205;-73
2020/12/20 01:39:27;;;;;;;12.65;9.70;;;7.30;99.90;;;;;;5068580;28;20232;-73
2020/12/20 01:42:12;;;;;;;17.33;12.00;;;7.30;99.90;;;;;;5061994;28;20251;-72
2020/12/20 01:44:57;;;;;;;15.05;11.32;;;7.40;99.90;;;;;;5061179;28;20285;-73
2020/12/20 01:47:42;;;;;;;14.90;10.32;;;7.30;99.90;;;;;;5055755;28;20240;-73
2020/12/20 01:50:27;;;;;;;13.00;11.20;;;7.30;99.90;;;;;;5069360;28;20242;-74
2020/12/20 01:53:12;;;;;;;16.57;12.53;;;7.40;99.90;;;;;;5066825;28;20466;-73
2020/12/20 01:56:01;;;;;;;15.23;11.80;;;7.40;99.90;;;;;;5063473;28;20564;-73
2020/12/20 01:58:47;;;;;;;21.40;11.38;;;7.40;99.90;;;;;;5061368;28;20220;-73
2020/12/20 02:01:32;;;;;;;18.67;14.63;;;7.40;99.90;;;;;;5068577;28;20251;-73
2020/12/20 02:04:17;;;;;;;15.80;12.75;;;7.30;99.90;;;;;;5067675;28;20267;-73
2020/12/20 02:07:01;;;;;;;16.83;14.23;;;7.40;99.90;;;;;;5068972;28;20233;-73
2020/12/20 02:09:47;;;;;;;14.23;12.73;;;7.40;99.90;;;;;;5062436;28;20267;-73
2020/12/20 02:12:33;;;;;;;21.03;13.40;;;7.50;99.90;;;;;;5065094;28;20216;-73
2020/12/20 02:15:18;;;;;;;16.38;12.88;;;7.50;99.90;;;;;;5063344;28;20466;-74
2020/12/20 02:18:03;;;;;;;14.25;12.73;;;7.50;99.90;;;;;;5066028;28;20220;-73
2020/12/20 02:20:48;;;;;;;20.95;12.52;;;7.40;99.90;;;;;;5070934;28;20274;-73
2020/12/20 02:23:40;;;;;;;17.50;13.05;;;7.40;99.90;;;;;;5067829;28;20227;-73
2020/12/20 02:26:26;;;;;;;18.43;13.27;;;7.20;99.90;;;;;;5059447;28;20255;-73
2020/12/20 02:29:11;;;;;;;15.33;12.30;;;7.10;99.90;;;;;;5069141;28;21106;-73
2020/12/20 02:31:58;;;;;;;13.68;11.48;;;7.20;99.90;;;;;;5072420;28;20499;-74
2020/12/20 02:34:43;;;;;;;14.27;12.05;;;7.20;99.90;;;;;;5068166;28;20224;-72
2020/12/20 02:37:28;;;;;;;13.05;11.25;;;7.10;99.90;;;;;;5066399;28;20293;-72
2020/12/20 02:40:15;;;;;;;14.07;10.50;;;7.10;99.90;;;;;;5069795;28;20305;-72
2020/12/20 02:43:00;;;;;;;13.20;10.18;;;7.20;99.90;;;;;;5067276;28;20200;-73
2020/12/20 02:45:45;;;;;;;16.27;12.30;;;7.30;99.90;;;;;;5071473;28;20690;-73
2020/12/20 02:48:30;;;;;;;17.38;11.85;;;7.30;99.90;;;;;;5061522;28;20235;-73
2020/12/20 02:51:15;;;;;;;16.38;12.80;;;7.20;99.90;;;;;;5069252;28;20200;-73
2020/12/20 02:54:00;;;;;;;11.95;9.98;;;7.20;99.90;;;;;;5069879;28;20862;-73
2020/12/20 02:56:47;;;;;;;15.15;9.95;;;7.10;99.90;;;;;;5064027;28;20217;-73
2020/12/20 02:59:31;;;;;;;12.95;8.43;;;7.10;99.90;;;;;;5057958;28;20232;-74
2020/12/20 03:02:16;;;;;;;12.88;7.72;;;7.20;99.90;;;;;;5063075;28;20744;-73
2020/12/20 03:05:02;;;;;;;11.32;9.48;;;7.20;99.90;;;;;;5067201;28;20204;-74
2020/12/20 03:07:47;;;;;;;14.90;9.55;;;7.20;99.90;;;;;;5066166;28;20641;-73
2020/12/20 03:10:32;;;;;;;10.80;8.73;;;7.10;99.90;;;;;;5065427;28;20212;-73
2020/12/20 03:13:18;;;;;;;12.43;9.07;;;7.10;99.90;;;;;;5064369;28;20247;-73
2020/12/20 03:16:03;;;;;;;10.18;7.70;;;7.10;99.90;;;;;;5065710;28;20216;-73
2020/12/20 03:18:49;;;;;;;9.10;7.10;;;7.10;99.90;;;;;;5064182;28;20809;-73
2020/12/20 03:21:33;;;;;;;11.80;7.13;;;7.10;99.90;;;;;;5065080;28;20474;-73
2020/12/20 03:24:19;;;;;;;8.32;6.57;;;7.20;99.90;;;;;;5066841;28;20242;-72
2020/12/20 03:27:04;;;;;;;7.78;6.53;;;7.20;99.90;;;;;;5071511;28;20219;-74
2020/12/20 03:29:50;;;;;;;9.20;6.40;;;7.20;99.90;;;;;;5061925;28;20229;-72
2020/12/20 03:32:35;;;;;;;9.88;6.35;;;7.30;99.90;;;;;;5061287;28;20289;-73
2020/12/20 03:35:20;;;;;;;8.35;6.65;;;7.40;99.90;;;;;;5057096;28;20291;-73
2020/12/20 03:38:06;;;;;;;13.13;6.03;;;7.40;99.90;;;;;;5061631;28;20242;-72
2020/12/20 03:40:51;;;;;;;9.52;5.70;;;7.40;99.90;;;;;;5067125;28;20622;-73
2020/12/20 03:43:36;;;;;;;7.78;5.90;;;7.40;99.90;;;;;;5049897;28;20969;-73
2020/12/20 03:46:22;;;;;;;10.23;6.22;;;7.30;99.90;;;;;;5060132;28;20242;-73
2020/12/20 03:49:07;;;;;;;10.40;5.65;;;7.30;99.90;;;;;;5065463;28;20220;-74
2020/12/20 03:51:52;;;;;;;8.38;5.97;;;7.30;99.90;;;;;;5070545;28;20223;-72
2020/12/20 03:54:37;;;;;;;6.47;5.57;;;7.30;99.90;;;;;;5067165;28;20224;-73
2020/12/20 03:57:22;;;;;;;8.35;5.93;;;7.30;99.90;;;;;;5060058;28;20269;-72
2020/12/20 04:00:07;;;;;;;10.25;6.43;;;7.30;99.90;;;;;;5063108;28;20221;-73
2020/12/20 04:02:53;;;;;;;8.07;5.47;;;7.20;99.90;;;;;;5063636;28;20630;-73
2020/12/20 04:05:38;;;;;;;7.53;5.60;;;7.30;99.90;;;;;;5065319;28;20200;-74
2020/12/20 04:08:23;;;;;;;8.07;6.18;;;7.40;99.90;;;;;;5067135;28;20466;-73
2020/12/20 04:11:08;;;;;;;8.73;5.43;;;7.40;99.90;;;;;;5060648;28;20286;-73
2020/12/20 04:13:53;;;;;;;6.72;5.30;;;7.40;99.90;;;;;;5065480;28;20242;-73
2020/12/20 04:16:38;;;;;;;8.68;5.72;;;7.50;99.90;;;;;;5061600;28;20711;-73
2020/12/20 04:19:24;;;;;;;9.73;4.80;;;7.60;99.90;;;;;;5063756;28;20321;-73
2020/12/20 04:22:09;;;;;;;5.97;4.50;;;7.70;99.90;;;;;;5064792;28;20196;-74
2020/12/20 04:24:54;;;;;;;6.35;5.35;;;7.60;99.90;;;;;;5068457;28;20675;-73
2020/12/20 04:27:39;;;;;;;11.52;5.32;;;7.60;99.90;;;;;;5058912;28;20248;-72
2020/12/20 04:30:26;;;;;;;7.60;5.43;;;7.50;99.90;;;;;;5068664;28;20203;-74
2020/12/20 04:33:11;;;;;;;11.27;5.65;;;7.50;99.90;;;;;;5062239;28;20216;-73
2020/12/20 04:35:57;;;;;;;5.95;5.20;;;7.60;99.90;;;;;;5063017;28;20731;-73
2020/12/20 04:38:42;;;;;;;7.70;5.13;;;7.60;99.90;;;;;;5064761;28;20223;-72
2020/12/20 04:41:28;;;;;;;10.20;7.80;;;7.70;99.90;;;;;;5063883;28;20212;-72
2020/12/20 04:44:13;;;;;;;8.73;6.40;;;7.60;99.90;;;;;;5067990;28;20203;-74
2020/12/20 04:46:59;;;;;;;6.72;5.28;;;7.70;99.90;;;;;;5068157;28;20250;-72
2020/12/20 04:49:46;;;;;;;10.50;6.22;;;7.60;99.90;;;;;;5067915;28;20215;-73
2020/12/20 04:52:33;;;;;;;7.03;6.13;;;7.60;99.90;;;;;;5060861;28;20694;-73
2020/12/20 04:55:19;;;;;;;7.95;5.50;;;7.60;99.90;;;;;;5060564;28;20301;-73
2020/12/20 04:58:05;;;;;;;7.28;6.05;;;7.60;99.90;;;;;;5070452;28;20224;-73
2020/12/20 05:00:50;;;;;;;7.57;5.97;;;7.60;99.90;;;;;;5060857;28;20301;-73
2020/12/20 05:03:35;;;;;;;12.95;5.72;;;7.50;99.90;;;;;;5057013;28;20204;-73
2020/12/20 05:06:20;;;;;;;10.00;6.75;;;7.60;99.90;;;;;;5058554;28;20220;-72
2020/12/20 05:09:07;;;;;;;7.63;6.57;;;7.50;99.90;;;;;;5062373;28;20219;-73
2020/12/20 05:11:52;;;;;;;7.00;6.10;;;7.50;99.90;;;;;;5066605;28;20197;-73
2020/12/20 05:14:38;;;;;;;7.78;6.55;;;7.60;99.90;;;;;;5068303;28;20295;-72
2020/12/20 05:17:23;;;;;;;22.23;7.13;;;7.60;99.90;;;;;;5055565;28;20844;-74
2020/12/20 05:20:08;;;;;;;12.68;6.95;;;7.50;99.90;;;;;;5052680;28;20219;-73
2020/12/20 05:22:54;;;;;;;14.40;8.07;;;7.50;99.90;;;;;;5057789;28;20258;-73
2020/12/20 05:25:41;;;;;;;11.02;8.00;;;7.50;99.90;;;;;;5069287;28;20430;-74
2020/12/20 05:28:26;;;;;;;10.15;7.70;;;7.50;99.90;;;;;;5067877;28;20267;-73
2020/12/20 05:31:12;;;;;;;10.77;8.05;;;7.40;99.90;;;;;;5060900;28;20649;-73
2020/12/20 05:33:58;;;;;;;8.75;7.80;;;7.30;99.90;;;;;;5068025;28;20707;-72
2020/12/20 05:36:43;;;;;;;14.35;8.13;;;7.30;99.90;;;;;;5067654;28;20249;-74
2020/12/20 05:39:29;;;;;;;10.75;8.70;;;7.30;99.90;;;;;;5071643;28;20242;-73
2020/12/20 05:42:15;;;;;;;12.48;8.15;;;7.20;99.90;;;;;;5070914;28;20203;-73
2020/12/20 05:45:07;;;;;;;10.88;7.88;;;7.30;99.90;;;;;;5066696;28;20228;-72
2020/12/20 05:47:52;;;;;;;10.63;8.27;;;7.30;99.90;;;;;;5067363;28;20212;-73
2020/12/20 05:50:37;;;;;;;11.60;7.90;;;7.20;99.90;;;;;;5070139;28;20211;-74
2020/12/20 05:53:25;;;;;;;11.15;8.65;;;7.30;99.90;;;;;;5061825;28;20585;-73
2020/12/20 05:56:18;;;;;;;11.20;8.20;;;7.30;99.90;;;;;;5064585;28;20239;-74
2020/12/20 05:59:12;;;;;;;13.05;8.50;;;7.40;99.90;;;;;;5056635;28;20699;-73
2020/12/20 06:01:58;;;;;;;9.75;7.95;;;7.30;99.90;;;;;;5062039;28;20699;-73
2020/12/20 06:04:44;;;;;;;12.30;8.38;;;7.30;99.90;;;;;;5073924;28;20295;-73
2020/12/20 06:07:29;;;;;;;10.40;7.75;;;7.40;99.90;;;;;;5071590;28;20200;-73
2020/12/20 06:10:16;;;;;;;11.20;7.47;;;7.40;99.90;;;;;;5060371;28;20235;-73
2020/12/20 06:13:04;;;;;;;10.82;8.45;;;7.40;99.90;;;;;;5067964;28;20266;-73
2020/12/20 06:15:54;;;;;;;9.77;7.60;;;7.40;99.90;;;;;;5064731;28;20751;-73
2020/12/20 06:18:50;;;;;;;9.90;7.32;;;7.50;99.90;;;;;;5068574;28;20231;-73
2020/12/20 06:21:57;;;;;;;12.25;8.73;;;7.50;99.90;;;;;;5069657;28;20227;-73
2020/12/20 06:24:46;;;;;;;11.57;8.00;;;7.50;99.90;;;;;;5061594;28;20239;-73
2020/12/20 06:27:33;;;;;;;11.35;8.55;;;7.50;99.90;;;;;;5066165;28;20247;-72
2020/12/20 06:30:21;;;;;;;14.18;7.40;;;7.60;99.90;;;;;;5063135;28;20224;-74
2020/12/20 06:33:13;;;;;;;10.02;7.20;;;7.60;99.90;;;;;;5064116;28;20711;-73
2020/12/20 06:36:01;;;;;;;9.68;7.57;;;7.60;99.90;;;;;;5068063;28;20275;-73
2020/12/20 06:38:53;;;;;;;9.65;7.80;;;7.60;99.90;;;;;;5060331;28;20283;-72
2020/12/20 06:41:40;;;;;;;12.23;8.37;;;7.60;99.90;;;;;;5068222;28;20204;-72
2020/12/20 06:44:25;;;;;;;13.10;8.82;;;7.60;99.90;;;;;;5071158;28;20469;-74
2020/12/20 06:47:10;;;;;;;11.30;8.80;;;7.50;99.90;;;;;;5071880;28;20704;-73
2020/12/20 06:49:56;;;;;;;11.15;9.02;;;7.60;99.90;;;;;;5059574;28;20232;-72
2020/12/20 06:52:48;;;;;;;11.52;9.07;;;7.60;99.90;;;;;;5063019;28;20635;-72
2020/12/20 06:55:34;;;;;;;11.80;9.93;;;7.70;99.90;;;;;;5067464;28;20351;-74
2020/12/20 06:58:19;;;;;;;12.88;9.25;;;7.60;99.90;;;;;;5071738;28;20446;-73
2020/12/20 07:01:04;;;;;;;10.80;9.68;;;7.60;99.90;;;;;;5065624;28;20572;-73
2020/12/20 07:03:49;;;;;;;16.33;9.83;;;7.70;99.90;;;;;;5066395;28;20311;-73
2020/12/20 07:06:35;;;;;;;11.20;9.65;;;7.60;99.90;;;;;;5062042;28;20830;-73
2020/12/20 07:09:32;;;;;;;13.60;9.38;;;7.60;99.90;;;;;;5063818;28;20254;-73
2020/12/20 07:12:31;;;;;;;13.55;11.13;;;7.60;99.90;;;;;;5058804;28;20208;-73
2020/12/20 07:15:44;;;;;;;15.40;10.27;;;7.50;99.90;;;;;;5063893;28;20228;-73
2020/12/20 07:19:00;;;;;;;12.95;10.18;;;7.60;99.90;;;;;;5061202;28;20591;-72
2020/12/20 07:21:58;;;;;;;15.25;12.10;;;7.60;99.90;;;;;;5064919;28;20208;-72
2020/12/20 07:24:43;;;;;;;11.75;9.98;;;7.60;99.90;;;;;;5064325;28;20204;-72
2020/12/20 07:27:28;;;;;;;14.95;10.38;;;7.60;99.90;;;;;;5068044;28;20227;-73
2020/12/20 07:30:14;;;;;;;17.73;11.15;;;7.60;99.90;;;;;;5066575;28;20223;-73
2020/12/20 07:33:00;;;;;;;15.05;12.65;;;7.50;99.90;;;;;;5067609;28;20306;-72
2020/12/20 07:35:45;;;;;;;20.08;14.93;;;7.50;99.90;;;;;;5055198;28;20253;-74
2020/12/20 07:38:31;;;;;;;17.77;13.20;;;7.50;99.90;;;;;;5067787;28;20232;-74
2020/12/20 07:41:17;;;;;;;18.73;14.85;;;7.50;99.90;;;;;;5066971;28;20282;-74
2020/12/20 07:44:07;;;;;;;16.63;13.15;;;7.60;99.90;;;;;;5064931;28;20228;-72
2020/12/20 07:46:52;;;;;;;19.08;15.10;;;7.60;99.90;;;;;;5069163;28;20596;-73
2020/12/20 07:49:37;;;;;;;16.30;14.47;;;7.60;99.90;;;;;;5064883;28;20220;-73
2020/12/20 07:52:22;;;;;;;26.47;13.60;;;7.70;99.90;;;;;;5069220;28;20427;-74
2020/12/20 07:55:10;;;;;;;17.25;12.57;;;7.70;99.90;;;;;;5059310;28;20470;-73
2020/12/20 07:57:56;;;;;;;20.35;16.85;;;7.60;99.90;;;;;;5067810;28;20238;-74
2020/12/20 08:00:44;;;;;;;17.17;13.60;;;7.60;99.90;;;;;;5064282;28;20243;-73
2020/12/20 08:03:29;;;;;;;24.13;12.77;;;7.60;99.90;;;;;;5063825;28;20247;-73
2020/12/20 08:06:15;;;;;;;17.13;13.80;;;7.60;99.90;;;;;;5068679;28;20196;-74
2020/12/20 08:09:03;;;;;;;17.10;13.32;;;7.70;99.90;;;;;;5060667;28;20278;-73
2020/12/20 08:11:50;;;;;;;13.15;11.50;;;7.70;99.90;;;;;;5055767;28;20204;-74
2020/12/20 08:14:35;;;;;;;21.90;10.65;;;7.70;99.90;;;;;;5068148;28;20770;-72
2020/12/20 08:17:20;;;;;;;14.35;12.13;;;7.70;99.90;;;;;;5056733;28;20234;-73
2020/12/20 08:20:07;;;;;;;16.83;12.80;;;7.70;99.90;;;;;;5065741;28;20723;-73
2020/12/20 08:22:52;;;;;;;16.38;12.57;;;7.70;99.90;;;;;;5057184;28;20204;-72
2020/12/20 08:25:38;;;;;;;14.77;11.70;;;7.70;99.90;;;;;;5067718;28;20558;-72
2020/12/20 08:28:24;;;;;;;22.93;12.33;;;7.70;99.90;;;;;;5065848;28;20259;-72
2020/12/20 08:31:14;;;;;;;13.73;11.70;;;7.80;99.90;;;;;;5065832;28;20995;-73
2020/12/20 08:34:00;;;;;;;14.77;11.85;;;7.90;99.90;;;;;;5068348;28;20529;-75
2020/12/20 08:36:46;;;;;;;15.02;12.05;;;7.90;99.90;;;;;;5067791;28;20224;-74
2020/12/20 08:39:31;;;;;;;14.70;10.88;;;8.00;99.90;;;;;;5054699;28;20232;-75
2020/12/20 08:42:17;;;;;;;15.00;11.93;;;8.00;99.90;;;;;;5062297;28;20232;-73
2020/12/20 08:45:12;;;;;;;16.70;12.90;;;8.00;99.90;;;;;;5061909;28;20482;-75
2020/12/20 08:48:01;;;;;;;30.48;24.10;;;8.00;99.90;;;;;;5067723;28;20200;-75
2020/12/20 08:50:55;;;;;;;33.25;24.15;;;8.00;99.90;;;;;;5061006;28;20204;-74
2020/12/20 08:53:40;;;;;;;30.08;22.27;;;8.00;99.90;;;;;;5059073;28;20263;-74
2020/12/20 08:56:25;;;;;;;27.23;22.83;;;8.10;99.90;;;;;;5059950;28;20232;-75
2020/12/20 08:59:11;;;;;;;30.92;22.40;;;8.10;99.90;;;;;;5067301;28;20300;-74
2020/12/20 09:01:58;;;;;;;29.27;20.20;;;8.10;99.90;;;;;;5059285;28;20220;-74
2020/12/20 09:04:55;;;;;;;27.88;18.95;;;8.10;99.90;;;;;;5051805;28;20454;-73
2020/12/20 09:07:44;;;;;;;26.83;18.27;;;8.10;99.90;;;;;;5062459;28;20851;-74
2020/12/20 09:10:31;;;;;;;22.30;18.13;;;8.10;99.90;;;;;;5062619;28;20236;-75
2020/12/20 09:13:25;;;;;;;25.70;22.17;;;8.10;99.90;;;;;;5060477;28;20571;-75
2020/12/20 09:16:10;;;;;;;25.00;21.52;;;8.20;99.90;;;;;;5067768;28;20461;-75
2020/12/20 09:18:56;;;;;;;23.43;20.50;;;8.30;99.90;;;;;;5059854;28;20878;-75
2020/12/20 09:21:41;;;;;;;24.60;21.08;;;8.30;99.90;;;;;;5059718;28;20973;-75
2020/12/20 09:24:29;;;;;;;24.10;20.33;;;8.40;99.90;;;;;;5068675;28;20254;-76
2020/12/20 09:27:15;;;;;;;22.30;18.83;;;8.40;99.90;;;;;;5069025;28;20251;-75
2020/12/20 09:30:00;;;;;;;24.65;18.58;;;8.50;99.90;;;;;;5066791;28;20537;-74
2020/12/20 09:32:45;;;;;;;24.25;18.15;;;8.50;99.90;;;;;;5062902;28;20218;-75
2020/12/20 09:35:31;;;;;;;20.43;18.23;;;8.50;99.90;;;;;;5063470;28;20224;-75
2020/12/20 09:38:16;;;;;;;19.45;16.10;;;8.50;99.90;;;;;;5064198;28;20812;-75
2020/12/20 09:41:04;;;;;;;17.50;15.37;;;8.50;99.90;;;;;;5069079;28;20273;-75
2020/12/20 09:43:50;;;;;;;20.70;16.53;;;8.60;99.90;;;;;;5061635;28;20447;-75
2020/12/20 09:46:36;;;;;;;26.05;20.23;;;8.60;99.90;;;;;;5055361;28;20434;-74
2020/12/20 09:49:22;;;;;;;23.95;19.80;;;8.60;99.90;;;;;;5060704;28;20250;-74
2020/12/20 09:52:08;;;;;;;25.95;20.80;;;8.70;99.90;;;;;;5064767;28;20203;-75
2020/12/20 09:54:53;;;;;;;25.03;20.40;;;8.70;99.90;;;;;;5067786;28;20741;-75
2020/12/20 09:57:38;;;;;;;25.80;20.80;;;8.70;99.90;;;;;;5063921;28;20458;-74
2020/12/20 10:00:24;;;;;;;29.87;26.57;;;8.70;99.90;;;;;;5062031;28;21124;-73
2020/12/20 10:03:10;;;;;;;29.07;26.10;;;8.80;99.90;;;;;;5062352;28;20470;-72
2020/12/20 10:05:59;;;;;;;28.27;25.30;;;8.80;99.90;;;;;;5056662;28;20502;-75
2020/12/20 10:08:46;;;;;;;24.20;21.60;;;8.70;99.90;;;;;;5066195;28;20236;-75
2020/12/20 10:11:31;;;;;;;26.20;21.65;;;8.80;99.90;;;;;;5064061;28;20770;-75
2020/12/20 10:14:16;;;;;;;25.23;18.97;;;8.90;99.90;;;;;;5061686;28;20271;-73
2020/12/20 10:17:01;;;;;;;27.63;20.83;;;8.90;99.90;;;;;;5066785;28;20920;-75
2020/12/20 10:19:45;;;;;;;22.53;19.00;;;8.90;99.90;;;;;;5061849;28;20219;-74
2020/12/20 10:22:31;;;;;;;23.17;18.47;;;8.90;99.90;;;;;;5071118;28;20598;-75
2020/12/20 10:25:17;;;;;;;19.87;16.67;;;9.00;99.90;;;;;;5060585;28;20488;-74
2020/12/20 10:28:02;;;;;;;23.52;17.55;;;9.10;99.90;;;;;;5057258;28;21093;-73
2020/12/20 10:30:47;;;;;;;20.38;17.50;;;9.10;99.90;;;;;;5065405;28;20200;-75
2020/12/20 10:33:33;;;;;;;19.10;16.77;;;9.10;99.90;;;;;;5068526;28;20215;-75
2020/12/20 10:36:18;;;;;;;22.07;17.00;;;9.10;99.90;;;;;;5065239;28;20493;-75
2020/12/20 10:39:03;;;;;;;18.52;15.93;;;9.20;99.90;;;;;;5063415;28;20474;-76
2020/12/20 10:41:52;;;;;;;19.40;17.20;;;9.20;99.90;;;;;;5069642;28;20247;-74
2020/12/20 10:44:38;;;;;;;20.53;17.60;;;9.30;99.90;;;;;;5072226;28;20446;-75
2020/12/20 10:47:23;;;;;;;22.60;16.73;;;9.30;99.90;;;;;;5069232;28;20892;-75
2020/12/20 10:50:09;;;;;;;22.38;17.95;;;9.20;99.90;;;;;;5064657;28;20279;-75
2020/12/20 10:52:54;;;;;;;22.07;17.07;;;9.20;99.90;;;;;;5064784;28;20201;-74
2020/12/20 10:55:40;;;;;;;20.10;17.75;;;9.20;99.90;;;;;;5069128;28;20474;-76
2020/12/20 10:58:26;;;;;;;18.77;16.60;;;9.10;99.90;;;;;;5066745;28;20319;-76
2020/12/20 11:01:15;;;;;;;22.93;18.70;;;9.20;99.90;;;;;;5060244;28;21008;-76
2020/12/20 11:04:00;;;;;;;31.03;19.17;;;9.20;99.90;;;;;;5066428;28;20812;-75
2020/12/20 11:06:45;;;;;;;26.13;21.43;;;9.10;99.90;;;;;;5067358;28;20494;-76
2020/12/20 11:09:30;;;;;;;34.40;22.53;;;9.20;99.90;;;;;;5065420;28;20621;-76
2020/12/20 11:12:15;;;;;;;29.63;23.70;;;9.10;99.90;;;;;;5065608;28;20450;-76
2020/12/20 11:15:01;;;;;;;29.80;24.07;;;9.10;99.90;;;;;;5072348;28;20308;-76
2020/12/20 11:17:46;;;;;;;31.63;23.83;;;9.10;99.90;;;;;;5060661;28;20850;-77
2020/12/20 11:20:32;;;;;;;29.73;22.57;;;9.10;99.90;;;;;;5067104;28;20516;-75
2020/12/20 11:23:17;;;;;;;28.17;21.20;;;9.10;99.90;;;;;;5064304;28;20527;-73
2020/12/20 11:26:02;;;;;;;28.17;22.10;;;9.00;99.90;;;;;;5065313;28;20493;-74
2020/12/20 11:28:49;;;;;;;24.93;20.67;;;8.90;99.90;;;;;;5067956;28;20466;-75
2020/12/20 11:31:35;;;;;;;31.53;23.03;;;9.00;99.90;;;;;;5063476;28;20513;-75
2020/12/20 11:34:22;;;;;;;26.03;20.20;;;8.90;99.90;;;;;;5063590;28;20450;-73
2020/12/20 11:37:07;;;;;;;25.90;19.80;;;8.90;99.90;;;;;;5061920;28;20509;-74
2020/12/20 11:39:53;;;;;;;28.80;21.47;;;8.90;99.90;;;;;;5070428;28;20517;-76
2020/12/20 11:42:38;;;;;;;31.13;21.05;;;8.90;99.90;;;;;;5064367;28;20494;-72
2020/12/20 11:45:23;;;;;;;28.97;20.93;;;8.90;99.90;;;;;;5063860;28;20207;-75
2020/12/20 11:48:09;;;;;;;29.40;20.93;;;8.90;99.90;;;;;;5062397;28;20578;-72
2020/12/20 11:50:54;;;;;;;29.20;20.50;;;8.90;99.90;;;;;;5066580;28;20988;-75
2020/12/20 11:53:39;;;;;;;29.57;20.53;;;9.00;99.90;;;;;;5061801;28;20522;-74
2020/12/20 11:56:24;;;;;;;25.43;20.87;;;9.00;99.90;;;;;;5069373;28;20474;-75
2020/12/20 11:59:10;;;;;;;28.65;21.58;;;9.00;99.90;;;;;;5049961;28;20997;-73
2020/12/20 12:02:00;;;;;;;26.25;20.60;;;9.10;99.90;;;;;;5056931;28;20281;-75
2020/12/20 12:04:45;;;;;;;23.15;18.33;;;9.20;99.90;;;;;;5062477;28;20234;-76
2020/12/20 12:07:30;;;;;;;24.80;19.83;;;9.30;99.90;;;;;;5066300;28;20231;-74
2020/12/20 12:10:16;;;;;;;25.40;20.93;;;9.40;99.90;;;;;;5064904;28;20495;-74
2020/12/20 12:13:01;;;;;;;29.53;18.90;;;9.50;99.90;;;;;;5066144;28;20489;-74
2020/12/20 12:15:47;;;;;;;25.43;19.53;;;9.60;99.90;;;;;;5065202;28;20512;-75
2020/12/20 12:18:32;;;;;;;25.53;17.97;;;9.70;99.90;;;;;;5062567;28;20470;-76
2020/12/20 12:21:18;;;;;;;23.43;18.50;;;9.70;99.90;;;;;;5059071;28;20444;-75
2020/12/20 12:24:04;;;;;;;21.57;17.90;;;9.70;99.90;;;;;;5066747;28;20984;-75
2020/12/20 12:26:49;;;;;;;30.07;17.77;;;9.60;99.90;;;;;;5064658;28;20578;-75
2020/12/20 12:29:34;;;;;;;23.03;17.47;;;9.70;99.90;;;;;;5058562;28;20510;-76
2020/12/20 12:32:19;;;;;;;22.00;18.70;;;9.60;99.90;;;;;;5063128;28;20435;-76
2020/12/20 12:35:05;;;;;;;25.37;18.70;;;9.70;99.90;;;;;;5062183;28;20457;-76
2020/12/20 12:37:51;;;;;;;40.13;25.57;;;9.60;99.90;;;;;;5067337;28;20431;-76
2020/12/20 12:40:36;;;;;;;53.63;40.20;;;9.50;99.90;;;;;;5062055;28;20463;-76
2020/12/20 12:43:21;;;;;;;29.17;23.93;;;9.50;99.90;;;;;;5065969;28;20564;-76
2020/12/20 12:46:08;;;;;;;26.77;20.93;;;9.50;99.90;;;;;;5062623;28;20510;-76
2020/12/20 12:48:53;;;;;;;38.50;28.70;;;9.50;99.90;;;;;;5061691;28;20586;-76
2020/12/20 12:51:38;;;;;;;31.00;23.57;;;9.60;99.90;;;;;;5063152;28;20866;-76
2020/12/20 12:54:24;;;;;;;25.05;19.45;;;9.60;99.90;;;;;;5065824;28;20992;-75
2020/12/20 12:57:09;;;;;;;24.47;21.23;;;9.70;99.90;;;;;;5063076;28;20312;-75
2020/12/20 12:59:54;;;;;;;21.67;19.33;;;9.70;99.90;;;;;;5066207;28;20532;-75
2020/12/20 13:02:39;;;;;;;24.87;20.10;;;9.70;99.90;;;;;;5065012;28;20532;-76
2020/12/20 13:05:24;;;;;;;25.50;17.50;;;9.70;99.90;;;;;;5069151;28;20458;-76
2020/12/20 13:08:09;;;;;;;23.80;18.40;;;9.70;99.90;;;;;;5058776;28;20451;-75
2020/12/20 13:10:56;;;;;;;23.93;18.43;;;9.80;99.90;;;;;;5064474;28;20473;-76
2020/12/20 13:13:41;;;;;;;24.13;18.40;;;9.70;99.90;;;;;;5065136;28;20451;-76
2020/12/20 13:16:26;;;;;;;24.07;20.20;;;9.70;99.90;;;;;;5069238;28;20474;-76
2020/12/20 13:19:12;;;;;;;20.90;17.67;;;9.70;99.90;;;;;;5066851;28;21308;-76
2020/12/20 13:21:58;;;;;;;21.77;18.50;;;9.70;99.90;;;;;;5062826;28;20820;-76
2020/12/20 13:24:42;;;;;;;22.73;18.80;;;9.80;99.90;;;;;;5059945;28;20451;-76
2020/12/20 13:27:28;;;;;;;20.77;17.63;;;9.90;99.90;;;;;;5055886;28;20513;-76
2020/12/20 13:30:14;;;;;;;22.73;16.97;;;9.80;99.90;;;;;;5065254;28;20454;-74
2020/12/20 13:32:58;;;;;;;22.97;18.37;;;9.60;99.90;;;;;;5063289;28;20455;-73
2020/12/20 13:35:43;;;;;;;29.90;18.97;;;9.60;99.90;;;;;;5065426;28;20837;-73
2020/12/20 13:38:29;;;;;;;24.83;17.50;;;9.70;99.90;;;;;;5057600;28;20532;-74
2020/12/20 13:41:14;;;;;;;20.25;16.73;;;9.70;99.90;;;;;;5055474;28;20446;-75
2020/12/20 13:44:00;;;;;;;21.73;17.80;;;9.70;99.90;;;;;;5061269;28;20255;-75
2020/12/20 13:46:49;;;;;;;24.00;18.40;;;9.70;99.90;;;;;;5063712;28;20438;-75
2020/12/20 13:49:35;;;;;;;23.47;19.10;;;9.70;99.90;;;;;;5064783;28;20470;-75
2020/12/20 13:52:20;;;;;;;32.10;23.13;;;9.70;99.90;;;;;;5062522;28;20447;-76
2020/12/20 13:55:05;;;;;;;27.87;20.27;;;9.50;99.90;;;;;;5070406;28;21159;-76
2020/12/20 13:57:50;;;;;;;28.27;20.70;;;9.40;99.90;;;;;;5062699;28;20481;-75
2020/12/20 14:00:37;;;;;;;23.97;19.07;;;9.40;99.90;;;;;;5068292;28;21046;-73
2020/12/20 14:03:22;;;;;;;24.80;18.30;;;9.50;99.90;;;;;;5065281;28;20481;-73
2020/12/20 14:06:08;;;;;;;27.40;21.10;;;9.50;99.90;;;;;;5065928;28;20508;-74
2020/12/20 14:08:53;;;;;;;27.43;21.43;;;9.60;99.90;;;;;;5070121;28;20493;-76
2020/12/20 14:11:38;;;;;;;22.57;18.17;;;9.60;99.90;;;;;;5067897;28;20539;-73
2020/12/20 14:14:23;;;;;;;24.10;19.20;;;9.60;99.90;;;;;;5054608;28;20958;-76
2020/12/20 14:17:09;;;;;;;23.70;19.03;;;9.70;99.90;;;;;;5054384;28;20469;-75
2020/12/20 14:19:54;;;;;;;23.80;19.30;;;9.60;99.90;;;;;;5070246;28;20489;-76